Roosevelt, Washington
Current Conditions -  °F | °C
As of 8:12 PM on Tuesday 27 Jan 2015 (Local Time) from KHRI Reporting Station
Haze Haze  
Wind Chill: 37°   Ceiling: 11000
Heat Index: 37°   Visibility: 4mi
Dew Point: 35°   Wind: 3mph
Humidity: 93%   Direction: 350°N
Pressure: 30.16"   Gusts: NA
Location:  45.74°N, 120.21°W
Report Text: KHRI 280412Z AUTO 35003KT 4SM BR SCT005 BKN110 03/02 A3016 RMK AO2 T00280017
Loading
Personal Weather Stations






























Interactive Weather Map New forecast layout! Learn more

10-Day Weather Forecast

Advertisements
Track Severe Weather on mobile